Aden, Illinois
Current Conditions -  °F | °C
As of 12:55 AM on Friday 31 Oct 2014 (Local Time) from KFWC Reporting Station
Overcast Overcast  
Wind Chill: 47°   Ceiling: 4100
Heat Index: 49°   Visibility: 10mi
Dew Point: 46°   Wind: 5mph
Humidity: 92%   Direction: 30°NNE
Pressure: 30.04"   Gusts: NA
Location:  38.3069°N, 88.55°W
Report Text: KFWC 310555Z AUTO 03004KT 10SM SCT029 OVC041 09/08 A3004 RMK AO1 60001 T00920080 10118 20091 401520006
Loading
Personal Weather Stations






























Interactive Weather Map
Tropical Storm Tracking
New forecast layout! Learn more

10-Day Weather Forecast

Advertisements
Track Severe Weather on mobile